createdAt,value
2023-03-22T00:00:37.387Z,100.00
2023-03-22T00:01:39.121Z,100.00
2023-03-22T00:02:41.003Z,100.00
2023-03-22T00:03:43.050Z,100.00
2023-03-22T00:04:44.804Z,100.00
2023-03-22T00:05:46.440Z,100.00
2023-03-22T00:06:48.025Z,100.00
2023-03-22T00:07:49.612Z,100.00
2023-03-22T00:08:53.359Z,100.00
2023-03-22T00:09:55.031Z,100.00
2023-03-22T00:10:56.588Z,100.00
2023-03-22T00:11:58.192Z,100.00
2023-03-22T00:13:00.735Z,100.00
2023-03-22T00:14:02.271Z,100.00
2023-03-22T00:15:04.182Z,100.00
2023-03-22T00:16:06.238Z,100.00
2023-03-22T00:17:07.983Z,100.00
2023-03-22T00:18:10.742Z,100.00
2023-03-22T00:19:12.383Z,100.00
2023-03-22T00:20:13.945Z,100.00
2023-03-22T00:21:16.862Z,100.00
2023-03-22T00:22:18.428Z,100.00
2023-03-22T00:23:20.807Z,100.00
2023-03-22T00:24:22.574Z,100.00
2023-03-22T00:25:24.144Z,100.00
2023-03-22T00:26:25.715Z,100.00
2023-03-22T00:27:27.270Z,100.00
2023-03-22T00:28:28.842Z,100.00
2023-03-22T00:29:30.408Z,100.00
2023-03-22T00:30:31.956Z,100.00
2023-03-22T00:31:33.642Z,100.00
2023-03-22T00:32:36.254Z,100.00
2023-03-22T00:33:38.272Z,100.00
2023-03-22T00:34:39.832Z,100.00
2023-03-22T00:35:48.648Z,100.00
2023-03-22T00:36:50.717Z,100.00
2023-03-22T00:37:52.315Z,100.00
2023-03-22T00:38:53.852Z,100.00
2023-03-22T00:39:55.564Z,100.00
2023-03-22T00:41:04.921Z,100.00
2023-03-22T00:42:06.593Z,100.00
2023-03-22T00:43:08.240Z,100.00
2023-03-22T00:44:09.806Z,100.00
2023-03-22T00:45:12.507Z,100.00
2023-03-22T00:46:15.854Z,100.00
2023-03-22T00:47:17.466Z,100.00
2023-03-22T00:48:19.176Z,100.00
2023-03-22T00:49:20.860Z,100.00
2023-03-22T00:50:22.516Z,100.00
2023-03-22T00:51:24.119Z,100.00
2023-03-22T00:52:25.956Z,100.00
2023-03-22T00:53:28.194Z,100.00
2023-03-22T00:54:29.725Z,100.00
2023-03-22T00:55:31.975Z,100.00
2023-03-22T00:56:33.566Z,100.00
2023-03-22T00:57:42.174Z,100.00
2023-03-22T00:58:44.708Z,100.00
2023-03-22T00:59:47.263Z,100.00
2023-03-22T01:00:49.036Z,100.00
2023-03-22T01:01:50.620Z,100.00
2023-03-22T01:02:52.230Z,100.00
2023-03-22T01:03:55.524Z,100.00
2023-03-22T01:04:57.188Z,100.00
2023-03-22T01:05:58.819Z,100.00
2023-03-22T01:07:00.427Z,100.00
2023-03-22T01:08:03.626Z,100.00
2023-03-22T01:09:05.211Z,100.00
2023-03-22T01:10:07.558Z,100.00
2023-03-22T01:11:11.558Z,100.00
2023-03-22T01:12:13.861Z,100.00
2023-03-22T01:13:17.809Z,100.00
2023-03-22T01:14:19.594Z,100.00
2023-03-22T01:15:21.157Z,100.00
2023-03-22T01:16:22.973Z,100.00
2023-03-22T01:17:24.627Z,100.00
2023-03-22T01:18:26.317Z,100.00
2023-03-22T01:19:28.085Z,100.00
2023-03-22T01:20:30.124Z,100.00
2023-03-22T01:21:31.722Z,100.00
2023-03-22T01:22:33.346Z,100.00
2023-03-22T01:23:35.340Z,100.00
2023-03-22T01:24:37.031Z,100.00
2023-03-22T01:25:38.566Z,100.00
2023-03-22T01:26:40.171Z,100.00
2023-03-22T01:27:41.920Z,100.00
2023-03-22T01:28:43.634Z,100.00
2023-03-22T01:29:45.195Z,100.00
2023-03-22T01:30:46.937Z,100.00
2023-03-22T01:31:48.572Z,100.00
2023-03-22T01:32:50.215Z,100.00
2023-03-22T01:33:52.610Z,100.00
2023-03-22T01:34:56.715Z,100.00
2023-03-22T01:35:58.735Z,100.00
2023-03-22T01:37:00.945Z,100.00
2023-03-22T01:38:04.247Z,100.00
2023-03-22T01:39:07.323Z,100.00
2023-03-22T01:40:12.512Z,100.00
2023-03-22T01:41:16.156Z,100.00
2023-03-22T01:42:18.709Z,100.00
2023-03-22T01:43:20.684Z,100.00
2023-03-22T01:44:23.841Z,100.00
2023-03-22T01:45:36.235Z,100.00
2023-03-22T01:46:38.593Z,100.00
2023-03-22T01:47:43.578Z,100.00
2023-03-22T01:48:46.306Z,100.00
2023-03-22T01:49:49.322Z,100.00
2023-03-22T01:51:08.740Z,100.00
2023-03-22T01:52:26.114Z,100.00
2023-03-22T01:53:50.217Z,100.00
2023-03-22T01:54:53.753Z,100.00
2023-03-22T01:56:08.139Z,100.00
2023-03-22T01:57:10.573Z,100.00
2023-03-22T01:58:16.859Z,100.00
2023-03-22T01:59:40.824Z,100.00
2023-03-22T02:00:51.088Z,100.00
2023-03-22T02:02:01.405Z,100.00
2023-03-22T02:03:05.084Z,100.00
2023-03-22T02:04:18.172Z,100.00
2023-03-22T02:05:20.264Z,100.00
2023-03-22T02:06:23.042Z,100.00
2023-03-22T02:07:31.251Z,100.00
2023-03-22T02:08:33.878Z,100.00
2023-03-22T02:09:43.806Z,100.00
2023-03-22T02:10:46.249Z,100.00
2023-03-22T02:12:06.215Z,100.00
2023-03-22T02:13:24.336Z,100.00
2023-03-22T02:14:47.866Z,100.00
2023-03-22T02:16:43.918Z,100.00
2023-03-22T02:18:17.929Z,100.00
2023-03-22T02:19:29.902Z,100.00
2023-03-22T02:21:20.482Z,100.00
2023-03-22T02:22:59.487Z,100.00
2023-03-22T02:24:35.162Z,100.00
2023-03-22T02:25:39.835Z,100.00
2023-03-22T02:26:58.286Z,100.00
2023-03-22T02:28:14.159Z,100.00
2023-03-22T02:29:28.108Z,100.00
2023-03-22T02:31:14.925Z,100.00
2023-03-22T02:32:28.565Z,100.00
2023-03-22T02:33:36.457Z,100.00
2023-03-22T02:35:05.898Z,100.00
2023-03-22T02:36:07.452Z,100.00
2023-03-22T02:37:18.018Z,100.00
2023-03-22T02:38:56.884Z,100.00
2023-03-22T02:40:16.403Z,100.00
2023-03-22T02:41:33.112Z,100.00
2023-03-22T02:43:01.021Z,100.00
2023-03-22T02:44:24.624Z,100.00
2023-03-22T02:45:46.827Z,100.00
2023-03-22T02:46:59.975Z,100.00
2023-03-22T02:48:28.125Z,100.00
2023-03-22T02:49:32.475Z,100.00
2023-03-22T02:50:46.531Z,100.00
2023-03-22T02:51:55.598Z,100.00
2023-03-22T02:53:05.259Z,100.00
2023-03-22T02:54:17.980Z,100.00
2023-03-22T02:55:51.222Z,100.00
2023-03-22T02:57:02.791Z,100.00
2023-03-22T02:58:15.162Z,100.00
2023-03-22T02:59:19.708Z,100.00
2023-03-22T03:00:21.410Z,100.00
2023-03-22T03:01:34.611Z,100.00
2023-03-22T03:02:41.194Z,100.00
2023-03-22T03:03:43.262Z,100.00
2023-03-22T03:04:49.472Z,100.00
2023-03-22T03:05:58.398Z,100.00
2023-03-22T03:07:05.747Z,100.00
2023-03-22T03:08:09.723Z,100.00
2023-03-22T03:09:19.079Z,100.00
2023-03-22T03:10:22.150Z,100.00
2023-03-22T03:11:24.020Z,100.00
2023-03-22T03:12:27.281Z,100.00
2023-03-22T03:13:30.975Z,100.00
2023-03-22T03:14:32.934Z,100.00
2023-03-22T03:15:35.296Z,100.00
2023-03-22T03:16:38.001Z,100.00
2023-03-22T03:17:54.560Z,100.00
2023-03-22T03:19:01.093Z,100.00
2023-03-22T03:20:41.928Z,100.00
2023-03-22T03:21:49.342Z,100.00
2023-03-22T03:23:15.109Z,100.00
2023-03-22T03:24:53.556Z,100.00
2023-03-22T03:26:17.389Z,100.00
2023-03-22T03:27:28.114Z,100.00
2023-03-22T03:28:51.169Z,100.00
2023-03-22T03:30:03.205Z,100.00
2023-03-22T03:31:10.570Z,100.00
2023-03-22T03:32:25.666Z,100.00
2023-03-22T03:33:28.116Z,100.00
2023-03-22T03:34:29.623Z,100.00
2023-03-22T03:35:37.377Z,100.00
2023-03-22T03:36:44.140Z,100.00
2023-03-22T03:37:51.122Z,100.00
2023-03-22T03:38:55.124Z,100.00
2023-03-22T03:40:06.612Z,100.00
2023-03-22T03:41:15.693Z,100.00
2023-03-22T03:42:18.713Z,100.00
2023-03-22T03:43:22.688Z,100.00
2023-03-22T03:44:24.669Z,100.00
2023-03-22T03:45:26.408Z,100.00
2023-03-22T03:46:27.967Z,100.00
2023-03-22T03:47:31.060Z,100.00
2023-03-22T03:48:35.056Z,100.00
2023-03-22T03:49:37.849Z,100.00
2023-03-22T03:50:41.894Z,100.00
2023-03-22T03:51:47.851Z,100.00
2023-03-22T03:52:49.693Z,100.00
2023-03-22T03:53:51.273Z,100.00
2023-03-22T03:54:54.016Z,100.00
2023-03-22T03:56:01.464Z,100.00
2023-03-22T03:57:09.806Z,100.00
2023-03-22T03:58:12.162Z,100.00
2023-03-22T03:59:17.319Z,100.00
2023-03-22T04:00:22.064Z,100.00
2023-03-22T04:01:45.359Z,100.00
2023-03-22T04:02:50.502Z,100.00
2023-03-22T04:04:13.490Z,100.00
2023-03-22T04:05:20.625Z,100.00
2023-03-22T04:06:22.215Z,100.00
2023-03-22T04:07:29.248Z,100.00
2023-03-22T04:08:30.934Z,100.00
2023-03-22T04:09:36.242Z,100.00
2023-03-22T04:11:00.816Z,100.00
2023-03-22T04:12:04.105Z,100.00
2023-03-22T04:13:05.893Z,100.00
2023-03-22T04:14:07.624Z,100.00
2023-03-22T04:15:10.063Z,100.00
2023-03-22T04:16:11.803Z,100.00
2023-03-22T04:17:13.429Z,100.00
2023-03-22T04:18:14.989Z,100.00
2023-03-22T04:19:17.057Z,100.00
2023-03-22T04:20:20.026Z,100.00
2023-03-22T04:21:22.219Z,100.00
2023-03-22T04:22:35.478Z,100.00
2023-03-22T04:23:37.156Z,100.00
2023-03-22T04:24:38.841Z,100.00
2023-03-22T04:25:40.431Z,100.00
2023-03-22T04:26:45.164Z,100.00
2023-03-22T04:28:09.892Z,100.00
2023-03-22T04:29:12.151Z,100.00
2023-03-22T04:30:18.843Z,100.00
2023-03-22T04:31:35.542Z,100.00
2023-03-22T04:32:47.610Z,100.00
2023-03-22T04:33:50.470Z,100.00
2023-03-22T04:35:27.477Z,100.00
2023-03-22T04:36:29.299Z,100.00
2023-03-22T04:37:45.369Z,100.00
2023-03-22T04:38:51.187Z,100.00
2023-03-22T04:39:56.466Z,100.00
2023-03-22T04:41:06.549Z,100.00
2023-03-22T04:42:16.044Z,100.00
2023-03-22T04:43:18.254Z,100.00
2023-03-22T04:44:25.457Z,100.00
2023-03-22T04:45:27.920Z,100.00
2023-03-22T04:46:33.968Z,100.00
2023-03-22T04:47:39.708Z,100.00
2023-03-22T04:48:42.806Z,100.00
2023-03-22T04:49:45.761Z,100.00
2023-03-22T04:50:47.813Z,100.00
2023-03-22T04:51:49.883Z,100.00
2023-03-22T04:53:04.503Z,100.00
2023-03-22T04:54:06.974Z,100.00
2023-03-22T04:55:09.286Z,100.00
2023-03-22T04:56:13.163Z,100.00
2023-03-22T04:57:16.063Z,100.00
2023-03-22T04:58:21.678Z,100.00
2023-03-22T04:59:23.304Z,100.00
2023-03-22T05:00:24.874Z,100.00
2023-03-22T05:01:27.596Z,100.00
2023-03-22T05:02:41.146Z,100.00
2023-03-22T05:03:52.742Z,100.00
2023-03-22T05:04:57.134Z,100.00
2023-03-22T05:06:14.980Z,100.00
2023-03-22T05:07:38.841Z,100.00
2023-03-22T05:08:41.661Z,100.00
2023-03-22T05:09:43.459Z,100.00
2023-03-22T05:10:45.226Z,100.00
2023-03-22T05:11:46.847Z,100.00
2023-03-22T05:13:02.477Z,100.00
2023-03-22T05:14:13.361Z,100.00
2023-03-22T05:15:16.164Z,100.00
2023-03-22T05:16:18.273Z,100.00
2023-03-22T05:17:24.733Z,100.00
2023-03-22T05:18:29.846Z,100.00
2023-03-22T05:19:33.215Z,100.00
2023-03-22T05:20:35.812Z,100.00
2023-03-22T05:21:50.141Z,100.00
2023-03-22T05:22:52.205Z,100.00
2023-03-22T05:23:56.892Z,100.00
2023-03-22T05:24:59.205Z,100.00
2023-03-22T05:26:02.036Z,100.00
2023-03-22T05:27:04.029Z,100.00
2023-03-22T05:28:06.916Z,100.00
2023-03-22T05:29:31.788Z,100.00
2023-03-22T05:30:42.513Z,100.00
2023-03-22T05:32:04.068Z,100.00
2023-03-22T05:33:05.798Z,100.00
2023-03-22T05:34:12.640Z,100.00
2023-03-22T05:35:16.099Z,100.00
2023-03-22T05:36:25.595Z,100.00
2023-03-22T05:37:50.365Z,100.00
2023-03-22T05:38:52.025Z,100.00
2023-03-22T05:39:53.647Z,100.00
2023-03-22T05:40:58.584Z,100.00
2023-03-22T05:42:00.598Z,100.00
2023-03-22T05:43:02.174Z,100.00
2023-03-22T05:44:04.981Z,100.00
2023-03-22T05:45:07.744Z,100.00
2023-03-22T05:46:11.794Z,100.00
2023-03-22T05:47:24.716Z,100.00
2023-03-22T05:48:38.164Z,100.00
2023-03-22T05:49:40.165Z,100.00
2023-03-22T05:50:42.776Z,100.00
2023-03-22T05:51:45.052Z,100.00
2023-03-22T05:52:49.737Z,100.00
2023-03-22T05:54:00.694Z,100.00
2023-03-22T05:55:09.411Z,100.00
2023-03-22T05:56:11.286Z,100.00
2023-03-22T05:57:14.852Z,100.00
2023-03-22T05:58:16.461Z,100.00
2023-03-22T05:59:18.052Z,100.00
2023-03-22T06:00:20.832Z,100.00
2023-03-22T06:01:44.978Z,100.00
2023-03-22T06:02:54.940Z,100.00
2023-03-22T06:03:57.042Z,100.00
2023-03-22T06:05:22.401Z,100.00
2023-03-22T06:06:25.681Z,100.00
2023-03-22T06:07:43.375Z,100.00
2023-03-22T06:08:50.461Z,100.00
2023-03-22T06:09:52.289Z,100.00
2023-03-22T06:10:57.166Z,100.00
2023-03-22T06:11:59.068Z,100.00
2023-03-22T06:13:00.887Z,100.00
2023-03-22T06:14:06.312Z,100.00
2023-03-22T06:15:30.593Z,100.00
2023-03-22T06:16:40.578Z,100.00
2023-03-22T06:17:42.538Z,100.00
2023-03-22T06:18:47.188Z,100.00
2023-03-22T06:19:48.729Z,100.00
2023-03-22T06:20:50.602Z,100.00
2023-03-22T06:21:55.467Z,100.00
2023-03-22T06:22:59.695Z,100.00
2023-03-22T06:24:01.374Z,100.00
2023-03-22T06:25:03.447Z,100.00
2023-03-22T06:26:12.078Z,100.00
2023-03-22T06:27:15.485Z,100.00
2023-03-22T06:28:17.432Z,100.00
2023-03-22T06:29:29.507Z,100.00
2023-03-22T06:30:33.470Z,100.00
2023-03-22T06:31:46.643Z,100.00
2023-03-22T06:32:48.216Z,100.00
2023-03-22T06:33:50.033Z,100.00
2023-03-22T06:35:12.266Z,100.00
2023-03-22T06:36:13.941Z,100.00
2023-03-22T06:37:53.621Z,100.00
2023-03-22T06:38:55.360Z,100.00
2023-03-22T06:39:57.116Z,100.00
2023-03-22T06:41:00.317Z,100.00
2023-03-22T06:42:01.986Z,100.00
2023-03-22T06:43:06.811Z,100.00
2023-03-22T06:44:10.001Z,100.00
2023-03-22T06:45:26.583Z,100.00
2023-03-22T06:46:28.943Z,100.00
2023-03-22T06:47:40.176Z,100.00
2023-03-22T06:48:48.774Z,100.00
2023-03-22T06:49:51.723Z,100.00
2023-03-22T06:51:00.268Z,100.00
2023-03-22T06:52:07.598Z,100.00
2023-03-22T06:53:09.578Z,100.00
2023-03-22T06:54:11.214Z,100.00
2023-03-22T06:55:12.829Z,100.00
2023-03-22T06:56:14.431Z,100.00
2023-03-22T06:57:22.742Z,100.00
2023-03-22T06:58:24.417Z,100.00
2023-03-22T06:59:26.265Z,100.00
2023-03-22T07:00:28.427Z,100.00
2023-03-22T07:01:30.192Z,100.00
2023-03-22T07:02:32.212Z,100.00
2023-03-22T07:04:00.299Z,100.00
2023-03-22T07:05:02.178Z,100.00
2023-03-22T07:06:06.740Z,100.00
2023-03-22T07:07:11.192Z,100.00
2023-03-22T07:08:12.929Z,100.00
2023-03-22T07:09:20.454Z,100.00
2023-03-22T07:10:24.036Z,100.00
2023-03-22T07:11:25.774Z,100.00
2023-03-22T07:12:32.904Z,100.00
2023-03-22T07:13:39.995Z,100.00
2023-03-22T07:14:46.644Z,100.00
2023-03-22T07:16:02.642Z,100.00
2023-03-22T07:17:13.970Z,100.00
2023-03-22T07:18:15.642Z,100.00
2023-03-22T07:19:17.327Z,100.00
2023-03-22T07:20:19.805Z,100.00
2023-03-22T07:21:22.662Z,100.00
2023-03-22T07:22:29.577Z,100.00
2023-03-22T07:23:31.418Z,100.00
2023-03-22T07:24:50.249Z,100.00
2023-03-22T07:25:56.517Z,100.00
2023-03-22T07:27:02.611Z,100.00
2023-03-22T07:28:04.465Z,100.00
2023-03-22T07:29:07.145Z,100.00
2023-03-22T07:30:09.928Z,100.00
2023-03-22T07:31:15.868Z,100.00
2023-03-22T07:32:26.411Z,100.00
2023-03-22T07:33:37.018Z,100.00
2023-03-22T07:34:38.621Z,100.00
2023-03-22T07:35:48.007Z,100.00
2023-03-22T07:36:50.049Z,100.00
2023-03-22T07:37:51.610Z,100.00
2023-03-22T07:38:58.978Z,100.00
2023-03-22T07:40:08.070Z,100.00
2023-03-22T07:41:10.920Z,100.00
2023-03-22T07:42:26.932Z,100.00
2023-03-22T07:43:56.832Z,100.00
2023-03-22T07:45:05.466Z,100.00
2023-03-22T07:46:19.388Z,100.00
2023-03-22T07:47:37.717Z,100.00
2023-03-22T07:48:53.566Z,100.00
2023-03-22T07:50:26.782Z,100.00
2023-03-22T07:51:33.650Z,100.00
2023-03-22T07:52:35.270Z,100.00
2023-03-22T07:53:36.851Z,100.00
2023-03-22T07:54:38.585Z,100.00
2023-03-22T07:55:41.925Z,100.00
2023-03-22T07:56:43.627Z,100.00
2023-03-22T07:57:45.369Z,100.00
2023-03-22T07:58:47.591Z,100.00
2023-03-22T07:59:49.251Z,100.00
2023-03-22T08:00:51.576Z,100.00
2023-03-22T08:02:31.546Z,100.00
2023-03-22T08:03:35.807Z,100.00
2023-03-22T08:04:51.896Z,100.00
2023-03-22T08:06:07.398Z,100.00
2023-03-22T08:07:09.942Z,100.00
2023-03-22T08:08:12.074Z,100.00
2023-03-22T08:09:13.930Z,100.00
2023-03-22T08:10:15.691Z,100.00
2023-03-22T08:11:17.291Z,100.00
2023-03-22T08:12:19.246Z,100.00
2023-03-22T08:13:25.572Z,100.00
2023-03-22T08:14:35.960Z,100.00
2023-03-22T08:15:39.892Z,100.00
2023-03-22T08:16:41.820Z,100.00
2023-03-22T08:17:43.456Z,100.00
2023-03-22T08:18:51.133Z,100.00
2023-03-22T08:19:53.143Z,100.00
2023-03-22T08:20:59.937Z,100.00
2023-03-22T08:22:04.069Z,100.00
2023-03-22T08:23:40.501Z,100.00
2023-03-22T08:25:03.768Z,100.00
2023-03-22T08:26:09.943Z,100.00
2023-03-22T08:27:11.775Z,100.00
2023-03-22T08:28:22.145Z,100.00
2023-03-22T08:29:24.854Z,100.00
2023-03-22T08:30:26.539Z,100.00
2023-03-22T08:31:28.829Z,100.00
2023-03-22T08:32:30.552Z,100.00
2023-03-22T08:33:33.394Z,100.00
2023-03-22T08:34:40.066Z,100.00
2023-03-22T08:35:42.789Z,100.00
2023-03-22T08:36:44.634Z,100.00
2023-03-22T08:37:46.824Z,100.00
2023-03-22T08:38:49.315Z,100.00
2023-03-22T08:39:53.080Z,100.00
2023-03-22T08:40:58.718Z,100.00
2023-03-22T08:42:00.790Z,100.00
2023-03-22T08:43:04.062Z,100.00
2023-03-22T08:44:05.798Z,100.00
2023-03-22T08:45:09.622Z,100.00
2023-03-22T08:46:17.211Z,100.00
2023-03-22T08:47:20.022Z,100.00
2023-03-22T08:48:25.269Z,100.00
2023-03-22T08:49:50.616Z,100.00
2023-03-22T08:50:58.814Z,100.00
2023-03-22T08:52:10.297Z,100.00
2023-03-22T08:53:34.808Z,100.00
2023-03-22T08:54:56.310Z,100.00
2023-03-22T08:56:30.229Z,100.00
2023-03-22T08:57:44.086Z,100.00
2023-03-22T08:59:11.716Z,100.00
2023-03-22T09:00:39.075Z,100.00
2023-03-22T09:02:09.152Z,100.00
2023-03-22T09:03:11.159Z,100.00
2023-03-22T09:04:12.775Z,100.00
2023-03-22T09:05:14.649Z,100.00
2023-03-22T09:06:17.463Z,100.00
2023-03-22T09:07:20.144Z,100.00
2023-03-22T09:08:31.607Z,100.00
2023-03-22T09:09:40.505Z,100.00
2023-03-22T09:10:42.586Z,100.00
2023-03-22T09:11:46.668Z,100.00
2023-03-22T09:12:48.455Z,100.00
2023-03-22T09:13:50.744Z,100.00
2023-03-22T09:14:52.747Z,100.00
2023-03-22T09:15:54.412Z,100.00
2023-03-22T09:17:07.546Z,100.00
2023-03-22T09:18:09.103Z,100.00
2023-03-22T09:19:11.133Z,100.00
2023-03-22T09:20:13.377Z,100.00
2023-03-22T09:21:17.808Z,100.00
2023-03-22T09:22:29.704Z,100.00
2023-03-22T09:23:31.310Z,100.00
2023-03-22T09:24:34.310Z,100.00
2023-03-22T09:25:38.832Z,100.00
2023-03-22T09:26:40.552Z,100.00
2023-03-22T09:27:42.272Z,100.00
2023-03-22T09:28:44.136Z,100.00
2023-03-22T09:29:46.128Z,100.00
2023-03-22T09:30:51.182Z,100.00
2023-03-22T09:31:52.908Z,100.00
2023-03-22T09:33:05.575Z,100.00
2023-03-22T09:34:07.149Z,100.00
2023-03-22T09:35:09.131Z,100.00
2023-03-22T09:36:19.725Z,100.00
2023-03-22T09:37:21.341Z,100.00
2023-03-22T09:38:28.956Z,100.00
2023-03-22T09:39:30.963Z,100.00
2023-03-22T09:40:39.238Z,100.00
2023-03-22T09:41:54.628Z,100.00
2023-03-22T09:43:00.450Z,100.00
2023-03-22T09:44:06.642Z,100.00
2023-03-22T09:45:17.733Z,100.00
2023-03-22T09:46:41.443Z,100.00
2023-03-22T09:47:47.198Z,100.00
2023-03-22T09:48:50.394Z,100.00
2023-03-22T09:50:02.519Z,100.00
2023-03-22T09:51:11.171Z,100.00
2023-03-22T09:52:15.977Z,100.00
2023-03-22T09:53:18.516Z,100.00
2023-03-22T09:54:27.667Z,100.00
2023-03-22T09:55:50.425Z,100.00
2023-03-22T09:56:59.715Z,100.00
2023-03-22T09:58:16.234Z,100.00
2023-03-22T09:59:38.893Z,100.00
2023-03-22T10:00:45.824Z,100.00
2023-03-22T10:01:59.320Z,100.00
2023-03-22T10:03:09.405Z,100.00
2023-03-22T10:04:52.346Z,100.00
2023-03-22T10:06:05.832Z,100.00
2023-03-22T10:07:07.327Z,100.00
2023-03-22T10:08:35.029Z,100.00
2023-03-22T10:09:46.007Z,100.00
2023-03-22T10:10:47.815Z,100.00
2023-03-22T10:11:58.292Z,100.00
2023-03-22T10:13:16.816Z,100.00
2023-03-22T10:14:21.242Z,100.00
2023-03-22T10:15:44.626Z,100.00
2023-03-22T10:16:47.828Z,100.00
2023-03-22T10:17:55.608Z,100.00
2023-03-22T10:19:08.088Z,100.00
2023-03-22T10:20:40.667Z,100.00
2023-03-22T10:21:42.303Z,100.00
2023-03-22T10:22:46.750Z,100.00
2023-03-22T10:23:55.437Z,100.00
2023-03-22T10:24:58.888Z,100.00
2023-03-22T10:26:02.546Z,100.00
2023-03-22T10:27:14.104Z,100.00
2023-03-22T10:28:18.199Z,100.00
2023-03-22T10:29:34.924Z,100.00
2023-03-22T10:30:40.154Z,100.00
2023-03-22T10:31:43.958Z,100.00
2023-03-22T10:32:58.338Z,99.40
2023-03-22T10:33:59.898Z,100.00
2023-03-22T10:35:01.504Z,100.00
2023-03-22T10:36:06.168Z,100.00
2023-03-22T10:37:14.536Z,99.53
2023-03-22T10:38:23.547Z,100.00
2023-03-22T10:39:39.386Z,99.81
2023-03-22T10:40:42.202Z,99.18
2023-03-22T10:41:44.844Z,98.10
2023-03-22T10:42:54.310Z,97.91
2023-03-22T10:43:59.923Z,100.00
2023-03-22T10:45:14.037Z,100.00
2023-03-22T10:46:20.685Z,100.00
2023-03-22T10:48:03.719Z,97.96
2023-03-22T10:49:07.205Z,96.73
2023-03-22T10:50:19.341Z,96.54
2023-03-22T10:51:34.297Z,98.81
2023-03-22T10:52:41.599Z,97.57
2023-03-22T10:53:48.079Z,99.58
2023-03-22T10:54:49.836Z,96.68
2023-03-22T10:55:51.672Z,95.45
2023-03-22T10:56:53.298Z,95.47
2023-03-22T10:58:04.987Z,95.10
2023-03-22T10:59:06.457Z,95.71
2023-03-22T11:00:09.116Z,93.73
2023-03-22T11:01:13.855Z,92.41
2023-03-22T11:02:31.727Z,96.63
2023-03-22T11:03:36.116Z,93.78
2023-03-22T11:04:37.852Z,92.60
2023-03-22T11:05:39.672Z,92.28
2023-03-22T11:06:54.871Z,90.10
2023-03-22T11:07:58.582Z,89.75
2023-03-22T11:09:02.742Z,90.62
2023-03-22T11:10:04.236Z,90.28
2023-03-22T11:11:13.825Z,89.06
2023-03-22T11:12:15.900Z,89.08
2023-03-22T11:13:20.224Z,94.61
2023-03-22T11:14:34.638Z,95.75
2023-03-22T11:15:40.374Z,97.34
2023-03-22T11:17:07.159Z,97.75
2023-03-22T11:18:14.481Z,97.39
2023-03-22T11:19:24.796Z,93.86
2023-03-22T11:20:27.739Z,93.47
2023-03-22T11:21:33.141Z,95.05
2023-03-22T11:22:39.004Z,93.20
2023-03-22T11:23:45.739Z,94.50
2023-03-22T11:24:47.745Z,94.46
2023-03-22T11:25:50.819Z,94.07
2023-03-22T11:27:17.529Z,94.37
2023-03-22T11:28:22.721Z,92.90
2023-03-22T11:29:24.322Z,92.55
2023-03-22T11:30:28.177Z,91.94
2023-03-22T11:31:49.455Z,91.16
2023-03-22T11:33:09.382Z,88.23
2023-03-22T11:34:17.684Z,86.43
2023-03-22T11:35:25.388Z,85.35
2023-03-22T11:36:28.896Z,90.21
2023-03-22T11:37:30.564Z,91.92
2023-03-22T11:38:38.535Z,93.36
2023-03-22T11:39:47.083Z,93.10
2023-03-22T11:41:02.412Z,93.70
2023-03-22T11:42:06.195Z,93.95
2023-03-22T11:43:10.269Z,93.40
2023-03-22T11:44:15.477Z,90.62
2023-03-22T11:45:26.652Z,91.99
2023-03-22T11:46:29.470Z,92.31
2023-03-22T11:47:38.083Z,92.83
2023-03-22T11:48:41.486Z,92.89
2023-03-22T11:49:49.744Z,94.95
2023-03-22T11:50:54.680Z,95.38
2023-03-22T11:51:56.373Z,95.50
2023-03-22T11:53:01.542Z,95.42
2023-03-22T11:54:15.409Z,96.73
2023-03-22T11:55:17.498Z,97.32
2023-03-22T11:56:26.165Z,97.03
2023-03-22T11:57:31.235Z,96.52
2023-03-22T11:58:41.943Z,97.00
2023-03-22T11:59:54.261Z,98.67
2023-03-22T12:01:00.082Z,99.95
2023-03-22T12:02:26.298Z,100.00
2023-03-22T12:03:38.417Z,100.00
2023-03-22T12:04:44.389Z,98.23
2023-03-22T12:05:49.479Z,96.22
2023-03-22T12:06:55.076Z,95.41
2023-03-22T12:08:09.217Z,96.51
2023-03-22T12:09:24.123Z,97.91
2023-03-22T12:10:34.050Z,95.79
2023-03-22T12:11:47.931Z,96.05
2023-03-22T12:12:55.705Z,97.05
2023-03-22T12:13:57.219Z,96.01
2023-03-22T12:15:05.378Z,96.82
2023-03-22T12:16:10.786Z,97.96
2023-03-22T12:17:35.242Z,95.44
2023-03-22T12:18:41.287Z,94.92
2023-03-22T12:20:02.511Z,94.57
2023-03-22T12:21:04.264Z,93.51
2023-03-22T12:22:15.937Z,89.40
2023-03-22T12:23:22.433Z,85.72
2023-03-22T12:24:30.208Z,83.71
2023-03-22T12:25:35.964Z,85.12
2023-03-22T12:26:38.344Z,84.58
2023-03-22T12:27:44.140Z,85.21
2023-03-22T12:29:01.681Z,87.39
2023-03-22T12:30:12.260Z,87.56
2023-03-22T12:31:23.774Z,85.95
2023-03-22T12:32:41.315Z,86.04
2023-03-22T12:33:53.331Z,87.43
2023-03-22T12:35:05.457Z,88.73
2023-03-22T12:36:20.535Z,85.85
2023-03-22T12:37:30.574Z,85.48
2023-03-22T12:38:50.130Z,87.71
2023-03-22T12:40:23.494Z,90.23
2023-03-22T12:41:35.583Z,87.10
2023-03-22T12:42:52.300Z,85.62
2023-03-22T12:44:03.445Z,85.08
2023-03-22T12:45:13.608Z,81.29
2023-03-22T12:46:20.717Z,78.98
2023-03-22T12:47:31.838Z,79.37
2023-03-22T12:48:45.199Z,80.63
2023-03-22T12:49:57.348Z,82.32
2023-03-22T12:51:19.195Z,83.03
2023-03-22T12:52:44.535Z,83.07
2023-03-22T12:53:54.677Z,82.51
2023-03-22T12:54:58.118Z,81.65
2023-03-22T12:56:00.926Z,80.96
2023-03-22T12:57:02.875Z,84.84
2023-03-22T12:58:09.668Z,86.29
2023-03-22T12:59:19.446Z,88.12
2023-03-22T13:00:41.537Z,89.52
2023-03-22T13:02:03.447Z,89.01
2023-03-22T13:03:17.049Z,87.73
2023-03-22T13:04:36.686Z,87.18
2023-03-22T13:05:38.378Z,87.20
2023-03-22T13:06:42.918Z,85.37
2023-03-22T13:07:47.443Z,86.46
2023-03-22T13:09:39.887Z,84.57
2023-03-22T13:10:48.641Z,83.40
2023-03-22T13:12:17.909Z,84.62
2023-03-22T13:13:22.678Z,85.04
2023-03-22T13:14:50.176Z,83.94
2023-03-22T13:16:09.013Z,81.73
2023-03-22T13:17:10.804Z,84.09
2023-03-22T13:18:37.797Z,86.20
2023-03-22T13:19:51.276Z,84.92
2023-03-22T13:21:31.511Z,85.21
2023-03-22T13:22:38.675Z,85.10
2023-03-22T13:24:02.941Z,85.14
2023-03-22T13:25:24.726Z,85.45
2023-03-22T13:26:53.821Z,85.06
2023-03-22T13:27:55.324Z,83.22
2023-03-22T13:28:59.138Z,86.11
2023-03-22T13:30:01.390Z,87.70
2023-03-22T13:31:03.720Z,88.77
2023-03-22T13:32:27.077Z,90.57
2023-03-22T13:33:36.666Z,90.89
2023-03-22T13:34:45.764Z,91.23
2023-03-22T13:35:52.624Z,87.66
2023-03-22T13:36:56.859Z,88.02
2023-03-22T13:38:04.028Z,86.59
2023-03-22T13:39:10.556Z,88.80
2023-03-22T13:40:32.740Z,89.35
2023-03-22T13:41:35.542Z,87.61
2023-03-22T13:42:39.858Z,88.89
2023-03-22T13:43:53.985Z,89.09
2023-03-22T13:44:57.232Z,89.11
2023-03-22T13:45:58.769Z,86.74
2023-03-22T13:47:00.867Z,88.49
2023-03-22T13:48:11.610Z,88.04
2023-03-22T13:49:48.054Z,87.71
2023-03-22T13:50:49.888Z,86.69
2023-03-22T13:51:52.675Z,86.99
2023-03-22T13:53:02.503Z,86.55
2023-03-22T13:54:08.730Z,85.85
2023-03-22T13:55:38.578Z,86.82
2023-03-22T13:56:50.629Z,86.84
2023-03-22T13:57:58.948Z,86.91
2023-03-22T13:59:03.118Z,86.12
2023-03-22T14:00:20.207Z,86.91
2023-03-22T14:01:32.610Z,89.49
2023-03-22T14:02:37.159Z,89.21
2023-03-22T14:03:42.489Z,88.13
2023-03-22T14:05:11.777Z,88.00
2023-03-22T14:06:23.368Z,87.63
2023-03-22T14:07:31.135Z,87.20
2023-03-22T14:08:36.068Z,86.09
2023-03-22T14:09:49.141Z,86.35
2023-03-22T14:10:58.724Z,87.16
2023-03-22T14:12:30.823Z,90.36
2023-03-22T14:13:42.517Z,91.30
2023-03-22T14:14:46.381Z,91.16
2023-03-22T14:15:55.543Z,92.39
2023-03-22T14:17:05.735Z,90.08
2023-03-22T14:18:17.842Z,89.64